createdAt,value
2024-04-01T00:00:09.204Z,633.00
2024-04-01T00:01:09.248Z,637.00
2024-04-01T00:02:09.303Z,637.00
2024-04-01T00:03:09.735Z,644.00
2024-04-01T00:04:09.410Z,641.00
2024-04-01T00:05:09.430Z,635.00
2024-04-01T00:06:09.493Z,645.00
2024-04-01T00:07:09.546Z,639.00
2024-04-01T00:08:09.595Z,635.00
2024-04-01T00:09:09.615Z,641.00
2024-04-01T00:10:09.676Z,639.00
2024-04-01T00:11:09.707Z,638.00
2024-04-01T00:12:09.764Z,636.00
2024-04-01T00:13:10.235Z,638.00
2024-04-01T00:14:09.849Z,640.00
2024-04-01T00:15:09.906Z,638.00
2024-04-01T00:16:09.938Z,639.00
2024-04-01T00:17:09.992Z,633.00
2024-04-01T00:18:10.035Z,635.00
2024-04-01T00:19:10.097Z,642.00
2024-04-01T00:20:10.111Z,643.00
2024-04-01T00:21:10.166Z,653.00
2024-04-01T00:22:10.206Z,650.00
2024-04-01T00:23:10.747Z,646.00
2024-04-01T00:24:10.316Z,653.00
2024-04-01T00:25:10.350Z,642.00
2024-04-01T00:26:10.369Z,654.00
2024-04-01T00:27:10.390Z,648.00
2024-04-01T00:28:10.744Z,653.00
2024-04-01T00:29:10.469Z,662.00
2024-04-01T00:30:10.522Z,689.00
2024-04-01T00:31:10.594Z,690.00
2024-04-01T00:32:12.310Z,686.00
2024-04-01T00:33:10.606Z,720.00
2024-04-01T00:34:10.618Z,675.00
2024-04-01T00:35:10.626Z,703.00
2024-04-01T00:36:10.624Z,684.00
2024-04-01T00:37:10.631Z,675.00
2024-04-01T00:38:10.752Z,683.00
2024-04-01T00:39:10.604Z,699.00
2024-04-01T00:40:10.614Z,704.00
2024-04-01T00:41:10.645Z,686.00
2024-04-01T00:42:10.615Z,697.00
2024-04-01T00:43:10.644Z,669.00
2024-04-01T00:44:10.644Z,699.00
2024-04-01T00:45:10.640Z,668.00
2024-04-01T00:46:10.655Z,663.00
2024-04-01T00:47:10.649Z,657.00
2024-04-01T00:48:10.645Z,663.00
2024-04-01T00:49:11.538Z,672.00
2024-04-01T00:50:10.647Z,654.00
2024-04-01T00:51:10.685Z,662.00
2024-04-01T00:52:10.667Z,663.00
2024-04-01T00:53:10.754Z,672.00
2024-04-01T00:54:10.651Z,664.00
2024-04-01T00:55:10.660Z,666.00
2024-04-01T00:56:10.676Z,684.00
2024-04-01T00:57:10.645Z,694.00
2024-04-01T00:58:10.659Z,675.00
2024-04-01T00:59:10.692Z,695.00
2024-04-01T01:00:10.641Z,690.00
2024-04-01T01:01:10.662Z,668.00
2024-04-01T01:02:10.662Z,692.00
2024-04-01T01:03:10.748Z,693.00
2024-04-01T01:04:10.656Z,712.00
2024-04-01T01:05:10.673Z,695.00
2024-04-01T01:06:10.650Z,701.00
2024-04-01T01:07:10.680Z,712.00
2024-04-01T01:08:10.750Z,738.00
2024-04-01T01:09:10.749Z,706.00
2024-04-01T01:10:10.804Z,727.00
2024-04-01T01:11:10.862Z,699.00
2024-04-01T01:12:10.882Z,701.00
2024-04-01T01:13:10.892Z,737.00
2024-04-01T01:14:10.933Z,755.00
2024-04-01T01:15:10.960Z,743.00
2024-04-01T01:16:10.972Z,770.00
2024-04-01T01:17:11.015Z,776.00
2024-04-01T01:18:11.066Z,787.00
2024-04-01T01:19:11.080Z,784.00
2024-04-01T01:20:11.107Z,828.00
2024-04-01T01:21:11.147Z,803.00
2024-04-01T01:22:11.206Z,798.00
2024-04-01T01:23:11.203Z,819.00
2024-04-01T01:24:11.276Z,833.00
2024-04-01T01:25:11.304Z,844.00
2024-04-01T01:26:11.286Z,866.00
2024-04-01T01:27:11.326Z,867.00
2024-04-01T01:28:11.778Z,910.00
2024-04-01T01:29:11.348Z,914.00
2024-04-01T01:30:11.419Z,922.00
2024-04-01T01:31:11.374Z,928.00
2024-04-01T01:32:11.437Z,918.00
2024-04-01T01:33:11.741Z,927.00
2024-04-01T01:34:11.439Z,916.00
2024-04-01T01:35:11.507Z,912.00
2024-04-01T01:36:11.513Z,909.00
2024-04-01T01:37:11.510Z,921.00
2024-04-01T01:38:11.583Z,933.00
2024-04-01T01:39:11.577Z,920.00
2024-04-01T01:40:11.593Z,914.00
2024-04-01T01:41:11.599Z,912.00
2024-04-01T01:42:11.634Z,893.00
2024-04-01T01:43:11.776Z,894.00
2024-04-01T01:44:11.675Z,874.00
2024-04-01T01:45:11.689Z,902.00
2024-04-01T01:46:11.740Z,887.00
2024-04-01T01:47:11.739Z,869.00
2024-04-01T01:48:12.260Z,865.00
2024-04-01T01:49:11.803Z,824.00
2024-04-01T01:50:11.830Z,841.00
2024-04-01T01:51:11.838Z,833.00
2024-04-01T01:52:11.877Z,883.00
2024-04-01T01:53:11.925Z,882.00
2024-04-01T01:54:11.939Z,879.00
2024-04-01T01:55:11.970Z,894.00
2024-04-01T01:56:12.006Z,902.00
2024-04-01T01:57:12.026Z,906.00
2024-04-01T01:58:12.031Z,891.00
2024-04-01T01:59:12.052Z,898.00
2024-04-01T02:00:12.088Z,898.00
2024-04-01T02:01:12.101Z,883.00
2024-04-01T02:02:12.095Z,889.00
2024-04-01T02:03:13.588Z,867.00
2024-04-01T02:04:12.371Z,837.00
2024-04-01T02:05:12.395Z,884.00
2024-04-01T02:06:12.421Z,855.00
2024-04-01T02:07:12.425Z,880.00
2024-04-01T02:08:12.453Z,869.00
2024-04-01T02:09:12.454Z,887.00
2024-04-01T02:10:12.464Z,895.00
2024-04-01T02:11:12.483Z,902.00
2024-04-01T02:12:12.544Z,911.00
2024-04-01T02:13:12.792Z,907.00
2024-04-01T02:14:12.566Z,896.00
2024-04-01T02:15:12.591Z,879.00
2024-04-01T02:16:12.618Z,894.00
2024-04-01T02:17:12.649Z,896.00
2024-04-01T02:18:12.781Z,914.00
2024-04-01T02:19:12.694Z,925.00
2024-04-01T02:20:12.700Z,922.00
2024-04-01T02:21:12.715Z,905.00
2024-04-01T02:22:12.715Z,917.00
2024-04-01T02:23:12.718Z,902.00
2024-04-01T02:24:12.723Z,901.00
2024-04-01T02:25:12.737Z,918.00
2024-04-01T02:26:12.781Z,891.00
2024-04-01T02:27:12.772Z,909.00
2024-04-01T02:28:12.796Z,926.00
2024-04-01T02:29:12.818Z,930.00
2024-04-01T02:30:12.821Z,928.00
2024-04-01T02:31:12.824Z,971.00
2024-04-01T02:32:12.860Z,941.00
2024-04-01T02:33:13.290Z,919.00
2024-04-01T02:34:12.905Z,912.00
2024-04-01T02:35:12.900Z,899.00
2024-04-01T02:36:12.918Z,901.00
2024-04-01T02:37:12.921Z,903.00
2024-04-01T02:38:12.966Z,913.00
2024-04-01T02:39:12.971Z,915.00
2024-04-01T02:40:12.992Z,916.00
2024-04-01T02:41:12.994Z,914.00
2024-04-01T02:42:13.016Z,937.00
2024-04-01T02:43:13.062Z,941.00
2024-04-01T02:44:13.056Z,924.00
2024-04-01T02:45:13.082Z,933.00
2024-04-01T02:46:13.140Z,932.00
2024-04-01T02:47:13.164Z,943.00
2024-04-01T02:48:13.163Z,913.00
2024-04-01T02:49:13.158Z,907.00
2024-04-01T02:50:13.215Z,906.00
2024-04-01T02:51:13.221Z,903.00
2024-04-01T02:52:13.246Z,882.00
2024-04-01T02:53:13.251Z,889.00
2024-04-01T02:54:13.300Z,892.00
2024-04-01T02:55:13.288Z,894.00
2024-04-01T02:56:13.328Z,881.00
2024-04-01T02:57:13.373Z,902.00
2024-04-01T02:58:13.377Z,897.00
2024-04-01T02:59:13.423Z,886.00
2024-04-01T03:00:13.433Z,891.00
2024-04-01T03:01:13.472Z,909.00
2024-04-01T03:02:13.480Z,901.00
2024-04-01T03:03:13.507Z,917.00
2024-04-01T03:04:13.513Z,895.00
2024-04-01T03:05:13.530Z,903.00
2024-04-01T03:06:13.575Z,926.00
2024-04-01T03:07:13.563Z,896.00
2024-04-01T03:08:13.791Z,889.00
2024-04-01T03:09:13.599Z,881.00
2024-04-01T03:10:13.627Z,891.00
2024-04-01T03:11:13.643Z,881.00
2024-04-01T03:12:13.668Z,869.00
2024-04-01T03:13:13.695Z,882.00
2024-04-01T03:14:13.765Z,901.00
2024-04-01T03:15:13.701Z,906.00
2024-04-01T03:16:13.734Z,912.00
2024-04-01T03:17:13.823Z,939.00
2024-04-01T03:18:14.306Z,934.00
2024-04-01T03:19:13.794Z,962.00
2024-04-01T03:20:13.839Z,972.00
2024-04-01T03:21:13.850Z,972.00
2024-04-01T03:22:13.849Z,975.00
2024-04-01T03:23:13.876Z,1007.00
2024-04-01T03:24:13.877Z,1001.00
2024-04-01T03:25:13.907Z,1017.00
2024-04-01T03:26:13.940Z,1016.00
2024-04-01T03:27:13.941Z,1019.00
2024-04-01T03:28:13.965Z,1035.00
2024-04-01T03:29:13.971Z,1058.00
2024-04-01T03:30:13.976Z,1086.00
2024-04-01T03:31:14.012Z,1084.00
2024-04-01T03:32:14.013Z,1107.00
2024-04-01T03:33:14.080Z,1060.00
2024-04-01T03:34:14.041Z,1083.00
2024-04-01T03:35:14.053Z,1054.00
2024-04-01T03:36:14.027Z,1102.00
2024-04-01T03:37:14.072Z,1102.00
2024-04-01T03:38:14.319Z,1083.00
2024-04-01T03:39:14.087Z,1104.00
2024-04-01T03:40:14.098Z,1101.00
2024-04-01T03:41:14.088Z,1103.00
2024-04-01T03:42:14.073Z,1104.00
2024-04-01T03:43:14.125Z,1113.00
2024-04-01T03:44:14.070Z,1118.00
2024-04-01T03:45:14.089Z,1142.00
2024-04-01T03:46:14.099Z,1163.00
2024-04-01T03:47:14.095Z,1189.00
2024-04-01T03:48:14.301Z,1196.00
2024-04-01T03:49:14.110Z,1205.00
2024-04-01T03:50:14.109Z,1230.00
2024-04-01T03:51:14.100Z,1217.00
2024-04-01T03:52:14.103Z,1201.00
2024-04-01T03:53:14.129Z,1217.00
2024-04-01T03:54:14.120Z,1191.00
2024-04-01T03:55:14.121Z,1191.00
2024-04-01T03:56:14.126Z,1199.00
2024-04-01T03:57:14.140Z,1193.00
2024-04-01T03:58:14.332Z,1193.00
2024-04-01T03:59:14.149Z,1191.00
2024-04-01T04:00:14.147Z,1182.00
2024-04-01T04:01:14.167Z,1182.00
2024-04-01T04:02:14.194Z,1193.00
2024-04-01T04:03:14.202Z,1160.00
2024-04-01T04:04:14.188Z,1165.00
2024-04-01T04:05:14.185Z,1156.00
2024-04-01T04:06:14.201Z,1175.00
2024-04-01T04:07:14.223Z,1177.00
2024-04-01T04:08:14.207Z,1164.00
2024-04-01T04:09:14.222Z,1173.00
2024-04-01T04:10:14.223Z,1151.00
2024-04-01T04:11:14.239Z,1158.00
2024-04-01T04:12:14.244Z,1155.00
2024-04-01T04:13:14.331Z,1168.00
2024-04-01T04:14:14.263Z,1166.00
2024-04-01T04:15:14.265Z,1180.00
2024-04-01T04:16:14.273Z,1176.00
2024-04-01T04:17:14.284Z,1172.00
2024-04-01T04:18:14.303Z,1175.00
2024-04-01T04:19:14.291Z,1189.00
2024-04-01T04:20:14.319Z,1181.00
2024-04-01T04:21:14.313Z,1159.00
2024-04-01T04:22:14.316Z,1130.00
2024-04-01T04:23:14.334Z,1128.00
2024-04-01T04:24:14.336Z,1146.00
2024-04-01T04:25:14.334Z,1139.00
2024-04-01T04:26:14.336Z,1149.00
2024-04-01T04:27:14.349Z,1158.00
2024-04-01T04:28:14.366Z,1167.00
2024-04-01T04:29:14.364Z,1190.00
2024-04-01T04:30:14.372Z,1196.00
2024-04-01T04:31:14.391Z,1187.00
2024-04-01T04:32:14.404Z,1178.00
2024-04-01T04:33:14.407Z,1168.00
2024-04-01T04:34:14.368Z,1168.00
2024-04-01T04:35:14.406Z,1145.00
2024-04-01T04:36:14.388Z,1154.00
2024-04-01T04:37:14.407Z,1141.00
2024-04-01T04:38:14.394Z,1136.00
2024-04-01T04:39:14.399Z,1144.00
2024-04-01T04:40:14.425Z,1143.00
2024-04-01T04:41:14.430Z,1150.00
2024-04-01T04:42:14.441Z,1171.00
2024-04-01T04:43:14.434Z,1179.00
2024-04-01T04:44:14.454Z,1172.00
2024-04-01T04:45:21.719Z,600.00
2024-04-01T04:46:21.715Z,600.00
2024-04-01T04:47:21.721Z,600.00
2024-04-01T04:48:21.728Z,600.00
2024-04-01T04:49:21.752Z,600.00
2024-04-01T04:50:21.760Z,604.00
2024-04-01T04:51:21.766Z,604.00
2024-04-01T04:52:23.067Z,610.00
2024-04-01T04:53:21.729Z,609.00
2024-04-01T04:54:21.776Z,614.00
2024-04-01T04:55:21.728Z,622.00
2024-04-01T04:56:21.756Z,619.00
2024-04-01T04:57:21.729Z,619.00
2024-04-01T04:58:21.813Z,624.00
2024-04-01T04:59:21.728Z,625.00
2024-04-01T05:00:21.846Z,621.00
2024-04-01T05:01:21.720Z,620.00
2024-04-01T05:02:21.744Z,617.00
2024-04-01T05:03:21.749Z,624.00
2024-04-01T05:04:21.761Z,627.00
2024-04-01T05:05:21.745Z,631.00
2024-04-01T05:06:21.761Z,633.00
2024-04-01T05:07:21.734Z,629.00
2024-04-01T05:08:21.764Z,631.00
2024-04-01T05:09:21.791Z,633.00
2024-04-01T05:10:21.758Z,632.00
2024-04-01T05:11:21.808Z,646.00
2024-04-01T05:12:21.804Z,641.00
2024-04-01T05:13:21.823Z,643.00
2024-04-01T05:14:21.733Z,639.00
2024-04-01T05:15:21.757Z,639.00
2024-04-01T05:16:21.755Z,648.00
2024-04-01T05:17:21.777Z,649.00
2024-04-01T05:18:21.951Z,650.00
2024-04-01T05:19:21.814Z,642.00
2024-04-01T05:20:21.857Z,644.00
2024-04-01T05:21:21.849Z,643.00
2024-04-01T05:22:21.877Z,647.00
2024-04-01T05:23:21.916Z,651.00
2024-04-01T05:24:21.931Z,652.00
2024-04-01T05:25:21.967Z,664.00
2024-04-01T05:26:22.009Z,660.00
2024-04-01T05:27:22.073Z,659.00
2024-04-01T05:28:22.098Z,662.00
2024-04-01T05:29:22.118Z,658.00
2024-04-01T05:30:22.120Z,661.00
2024-04-01T05:31:22.181Z,660.00
2024-04-01T05:32:22.186Z,656.00
2024-04-01T05:33:22.195Z,664.00
2024-04-01T05:34:22.184Z,668.00
2024-04-01T05:35:22.200Z,680.00
2024-04-01T05:36:22.205Z,665.00
2024-04-01T05:37:22.210Z,662.00
2024-04-01T05:38:22.220Z,669.00
2024-04-01T05:39:22.200Z,673.00
2024-04-01T05:40:22.210Z,678.00
2024-04-01T05:41:22.216Z,684.00
2024-04-01T05:42:22.226Z,682.00
2024-04-01T05:43:22.236Z,691.00
2024-04-01T05:44:22.240Z,684.00
2024-04-01T05:45:22.256Z,685.00
2024-04-01T05:46:22.257Z,683.00
2024-04-01T05:47:22.240Z,679.00
2024-04-01T05:48:22.250Z,694.00
2024-04-01T05:49:22.325Z,696.00
2024-04-01T05:50:22.283Z,709.00
2024-04-01T05:51:22.290Z,720.00
2024-04-01T05:52:22.294Z,730.00
2024-04-01T05:53:22.343Z,743.00
2024-04-01T05:54:22.332Z,741.00
2024-04-01T05:55:22.350Z,745.00
2024-04-01T05:56:22.390Z,749.00
2024-04-01T05:57:22.387Z,760.00
2024-04-01T05:58:22.859Z,776.00
2024-04-01T05:59:22.472Z,770.00
2024-04-01T06:00:22.481Z,763.00
2024-04-01T06:01:22.522Z,744.00
2024-04-01T06:02:22.532Z,751.00
2024-04-01T06:03:22.584Z,733.00
2024-04-01T06:04:22.555Z,716.00
2024-04-01T06:05:22.548Z,712.00
2024-04-01T06:06:22.541Z,723.00
2024-04-01T06:07:22.552Z,730.00
2024-04-01T06:08:22.589Z,725.00
2024-04-01T06:09:22.572Z,742.00
2024-04-01T06:10:22.623Z,740.00
2024-04-01T06:11:22.570Z,751.00
2024-04-01T06:12:22.605Z,732.00
2024-04-01T06:13:22.877Z,736.00
2024-04-01T06:14:22.600Z,727.00
2024-04-01T06:15:22.606Z,734.00
2024-04-01T06:16:22.630Z,723.00
2024-04-01T06:17:22.611Z,719.00
2024-04-01T06:18:22.695Z,712.00
2024-04-01T06:19:22.686Z,711.00
2024-04-01T06:20:22.666Z,722.00
2024-04-01T06:21:22.655Z,718.00
2024-04-01T06:22:22.676Z,696.00
2024-04-01T06:23:22.673Z,711.00
2024-04-01T06:24:22.668Z,689.00
2024-04-01T06:25:22.699Z,695.00
2024-04-01T06:26:22.700Z,690.00
2024-04-01T06:27:22.736Z,676.00
2024-04-01T06:28:22.726Z,663.00
2024-04-01T06:29:22.753Z,660.00
2024-04-01T06:30:22.737Z,657.00
2024-04-01T06:31:22.767Z,655.00
2024-04-01T06:32:22.753Z,663.00
2024-04-01T06:33:22.776Z,660.00
2024-04-01T06:34:22.777Z,678.00
2024-04-01T06:35:22.795Z,688.00
2024-04-01T06:36:22.789Z,700.00
2024-04-01T06:37:22.812Z,720.00
2024-04-01T06:38:22.828Z,732.00
2024-04-01T06:39:22.850Z,741.00
2024-04-01T06:40:22.874Z,722.00
2024-04-01T06:41:22.900Z,719.00
2024-04-01T06:42:22.963Z,713.00
2024-04-01T06:43:22.997Z,691.00
2024-04-01T06:44:23.033Z,719.00
2024-04-01T06:45:23.071Z,717.00
2024-04-01T06:46:23.142Z,703.00
2024-04-01T06:47:23.114Z,698.00
2024-04-01T06:48:23.155Z,708.00
2024-04-01T06:49:23.158Z,731.00
2024-04-01T06:50:23.228Z,721.00
2024-04-01T06:51:23.259Z,711.00
2024-04-01T06:52:23.309Z,725.00
2024-04-01T06:53:23.355Z,748.00
2024-04-01T06:54:23.357Z,745.00
2024-04-01T06:55:23.401Z,726.00
2024-04-01T06:56:23.423Z,723.00
2024-04-01T06:57:23.481Z,712.00
2024-04-01T06:58:23.520Z,693.00
2024-04-01T06:59:23.537Z,671.00
2024-04-01T07:00:23.569Z,674.00
2024-04-01T07:01:23.573Z,673.00
2024-04-01T07:02:23.576Z,683.00
2024-04-01T07:03:23.639Z,670.00
2024-04-01T07:04:23.670Z,684.00
2024-04-01T07:05:23.688Z,691.00
2024-04-01T07:06:23.727Z,685.00
2024-04-01T07:07:23.764Z,689.00
2024-04-01T07:08:23.776Z,694.00
2024-04-01T07:09:23.833Z,685.00
2024-04-01T07:10:23.859Z,686.00
2024-04-01T07:11:23.908Z,697.00
2024-04-01T07:12:23.910Z,680.00
2024-04-01T07:13:23.964Z,687.00
2024-04-01T07:14:23.988Z,683.00
2024-04-01T07:15:24.001Z,683.00
2024-04-01T07:16:24.029Z,683.00
2024-04-01T07:17:24.073Z,694.00
2024-04-01T07:18:24.127Z,699.00
2024-04-01T07:19:24.175Z,706.00
2024-04-01T07:20:24.194Z,728.00
2024-04-01T07:21:27.449Z,734.00
2024-04-01T07:22:24.256Z,735.00
2024-04-01T07:23:24.313Z,761.00
2024-04-01T07:24:24.271Z,777.00
2024-04-01T07:25:24.254Z,774.00
2024-04-01T07:26:24.249Z,781.00
2024-04-01T07:27:24.268Z,772.00
2024-04-01T07:28:24.268Z,775.00
2024-04-01T07:29:24.290Z,783.00
2024-04-01T07:30:24.294Z,775.00
2024-04-01T07:31:24.274Z,781.00
2024-04-01T07:32:24.305Z,778.00
2024-04-01T07:33:24.257Z,800.00
2024-04-01T07:34:24.403Z,800.00
2024-04-01T07:35:24.294Z,807.00
2024-04-01T07:36:24.289Z,810.00
2024-04-01T07:37:24.280Z,799.00
2024-04-01T07:38:24.287Z,787.00
2024-04-01T07:39:24.405Z,776.00
2024-04-01T07:40:24.276Z,788.00
2024-04-01T07:41:24.290Z,776.00
2024-04-01T07:42:24.291Z,779.00
2024-04-01T07:43:24.305Z,781.00
2024-04-01T07:44:24.301Z,771.00
2024-04-01T07:45:24.286Z,764.00
2024-04-01T07:46:24.287Z,754.00
2024-04-01T07:47:24.302Z,757.00
2024-04-01T07:48:24.335Z,748.00
2024-04-01T07:49:24.353Z,743.00
2024-04-01T07:50:24.310Z,760.00
2024-04-01T07:51:24.325Z,753.00
2024-04-01T07:52:24.315Z,756.00
2024-04-01T07:53:24.310Z,765.00
2024-04-01T07:54:24.336Z,755.00
2024-04-01T07:55:24.319Z,771.00
2024-04-01T07:56:24.315Z,785.00
2024-04-01T07:57:24.320Z,775.00
2024-04-01T07:58:24.327Z,774.00
2024-04-01T07:59:24.372Z,779.00
2024-04-01T08:00:24.314Z,779.00
2024-04-01T08:01:24.318Z,762.00
2024-04-01T08:02:24.344Z,746.00
2024-04-01T08:03:24.315Z,745.00
2024-04-01T08:04:24.316Z,713.00
2024-04-01T08:05:24.388Z,717.00
2024-04-01T08:06:24.406Z,720.00
2024-04-01T08:07:24.426Z,727.00
2024-04-01T08:08:24.455Z,723.00
2024-04-01T08:09:24.917Z,719.00
2024-04-01T08:10:24.595Z,731.00
2024-04-01T08:11:24.630Z,739.00
2024-04-01T08:12:24.680Z,737.00
2024-04-01T08:13:24.752Z,737.00
2024-04-01T08:14:24.799Z,746.00
2024-04-01T08:15:24.874Z,758.00
2024-04-01T08:16:24.911Z,756.00
2024-04-01T08:17:25.002Z,773.00
2024-04-01T08:18:25.060Z,785.00
2024-04-01T08:19:25.512Z,779.00
2024-04-01T08:20:25.238Z,792.00
2024-04-01T08:21:25.262Z,780.00
2024-04-01T08:22:25.354Z,790.00
2024-04-01T08:23:25.394Z,753.00
2024-04-01T08:24:25.471Z,728.00
2024-04-01T08:25:25.514Z,725.00
2024-04-01T08:26:25.557Z,691.00
2024-04-01T08:27:25.574Z,708.00
2024-04-01T08:28:25.615Z,688.00
2024-04-01T08:29:25.902Z,680.00
2024-04-01T08:30:25.658Z,688.00
2024-04-01T08:31:25.699Z,685.00
2024-04-01T08:32:25.702Z,672.00
2024-04-01T08:33:25.707Z,678.00
2024-04-01T08:34:25.974Z,672.00
2024-04-01T08:35:25.762Z,680.00
2024-04-01T08:36:25.853Z,688.00
2024-04-01T08:37:25.866Z,684.00
2024-04-01T08:38:25.902Z,686.00
2024-04-01T08:39:26.414Z,705.00
2024-04-01T08:40:25.988Z,695.00
2024-04-01T08:41:26.070Z,703.00
2024-04-01T08:42:26.103Z,702.00
2024-04-01T08:43:26.160Z,722.00
2024-04-01T08:44:26.420Z,751.00
2024-04-01T08:45:26.252Z,760.00
2024-04-01T08:46:26.308Z,775.00
2024-04-01T08:47:26.383Z,764.00
2024-04-01T08:48:26.435Z,759.00
2024-04-01T08:49:26.477Z,784.00
2024-04-01T08:50:28.825Z,788.00
2024-04-01T08:51:26.558Z,776.00
2024-04-01T08:52:26.572Z,786.00
2024-04-01T08:53:26.571Z,797.00
2024-04-01T08:54:26.908Z,799.00
2024-04-01T08:55:26.587Z,802.00
2024-04-01T08:56:26.558Z,799.00
2024-04-01T08:57:26.567Z,783.00
2024-04-01T08:58:26.572Z,753.00
2024-04-01T08:59:26.544Z,751.00
2024-04-01T09:00:26.561Z,748.00
2024-04-01T09:01:26.558Z,761.00
2024-04-01T09:02:26.595Z,766.00
2024-04-01T09:03:26.590Z,770.00
2024-04-01T09:04:26.582Z,773.00
2024-04-01T09:05:26.595Z,791.00
2024-04-01T09:06:26.557Z,796.00
2024-04-01T09:07:26.579Z,812.00
2024-04-01T09:08:26.585Z,809.00
2024-04-01T09:09:26.989Z,813.00
2024-04-01T09:10:26.591Z,812.00
2024-04-01T09:11:26.578Z,818.00
2024-04-01T09:12:26.599Z,826.00
2024-04-01T09:13:26.611Z,828.00
2024-04-01T09:14:26.928Z,820.00
2024-04-01T09:15:26.597Z,837.00
2024-04-01T09:16:26.595Z,840.00
2024-04-01T09:17:26.594Z,856.00
2024-04-01T09:18:26.574Z,854.00
2024-04-01T09:19:26.617Z,854.00
2024-04-01T09:20:26.698Z,869.00
2024-04-01T09:21:26.754Z,868.00
2024-04-01T09:22:26.814Z,859.00
2024-04-01T09:23:26.899Z,846.00
2024-04-01T09:24:26.987Z,851.00
2024-04-01T09:25:27.075Z,857.00
2024-04-01T09:26:27.122Z,864.00
2024-04-01T09:27:27.187Z,863.00
2024-04-01T09:28:27.253Z,862.00
2024-04-01T09:29:27.354Z,864.00
2024-04-01T09:30:27.415Z,867.00
2024-04-01T09:31:27.462Z,866.00
2024-04-01T09:32:27.553Z,876.00
2024-04-01T09:33:27.600Z,878.00
2024-04-01T09:34:27.690Z,876.00
2024-04-01T09:35:27.772Z,881.00
2024-04-01T09:36:27.836Z,884.00
2024-04-01T09:37:27.923Z,886.00
2024-04-01T09:38:27.981Z,884.00
2024-04-01T09:39:29.576Z,892.00
2024-04-01T09:40:28.051Z,902.00
2024-04-01T09:41:28.072Z,905.00
2024-04-01T09:42:28.064Z,893.00
2024-04-01T09:43:42.461Z,915.00
2024-04-01T09:44:29.096Z,906.00
2024-04-01T09:45:28.088Z,915.00
2024-04-01T09:46:28.039Z,911.00
2024-04-01T09:47:28.123Z,906.00
2024-04-01T09:48:28.062Z,898.00
2024-04-01T09:49:28.083Z,886.00
2024-04-01T09:50:28.096Z,880.00
2024-04-01T09:51:28.089Z,894.00
2024-04-01T09:52:28.166Z,882.00
2024-04-01T09:53:28.237Z,880.00
2024-04-01T09:54:28.339Z,882.00
2024-04-01T09:55:28.385Z,888.00
2024-04-01T09:56:28.456Z,874.00
2024-04-01T09:57:35.549Z,881.00
2024-04-01T09:58:29.529Z,877.00
2024-04-01T09:59:28.537Z,860.00
2024-04-01T10:00:28.531Z,851.00
2024-04-01T10:01:28.535Z,850.00
2024-04-01T10:02:28.563Z,857.00
2024-04-01T10:03:28.529Z,852.00
2024-04-01T10:04:28.558Z,841.00
2024-04-01T10:05:28.599Z,848.00
2024-04-01T10:06:28.675Z,832.00
2024-04-01T10:07:28.759Z,799.00
2024-04-01T10:08:28.850Z,803.00
2024-04-01T10:09:28.890Z,775.00
2024-04-01T10:10:28.922Z,769.00
2024-04-01T10:11:29.008Z,759.00
2024-04-01T10:12:29.128Z,759.00
2024-04-01T10:13:29.155Z,763.00
2024-04-01T10:14:29.227Z,756.00
2024-04-01T10:15:29.286Z,759.00
2024-04-01T10:16:29.356Z,748.00
2024-04-01T10:17:29.433Z,740.00
2024-04-01T10:18:29.496Z,722.00
2024-04-01T10:19:29.546Z,719.00
2024-04-01T10:20:29.628Z,721.00
2024-04-01T10:21:29.657Z,701.00
2024-04-01T10:22:29.713Z,696.00
2024-04-01T10:23:29.739Z,691.00
2024-04-01T10:24:29.957Z,688.00
2024-04-01T10:25:29.849Z,705.00
2024-04-01T10:26:29.939Z,712.00
2024-04-01T10:27:30.006Z,708.00
2024-04-01T10:28:30.088Z,724.00
2024-04-01T10:29:30.132Z,727.00
2024-04-01T10:30:30.203Z,699.00
2024-04-01T10:31:30.390Z,706.00
2024-04-01T10:32:30.324Z,678.00
2024-04-01T10:33:30.419Z,680.00
2024-04-01T10:34:30.502Z,665.00
2024-04-01T10:35:30.595Z,662.00
2024-04-01T10:36:31.039Z,661.00
2024-04-01T10:37:30.697Z,661.00
2024-04-01T10:38:30.778Z,660.00
2024-04-01T10:39:30.820Z,657.00
2024-04-01T10:40:30.880Z,655.00
2024-04-01T10:41:30.920Z,657.00
2024-04-01T10:42:33.508Z,657.00
2024-04-01T10:43:30.962Z,662.00
2024-04-01T10:44:30.988Z,663.00
2024-04-01T10:45:31.001Z,663.00
2024-04-01T10:46:30.999Z,684.00
2024-04-01T10:47:31.005Z,668.00
2024-04-01T10:48:30.986Z,660.00
2024-04-01T10:49:31.001Z,661.00
2024-04-01T10:50:30.995Z,652.00
2024-04-01T10:51:31.036Z,641.00
2024-04-01T10:52:30.988Z,635.00
2024-04-01T10:53:30.974Z,637.00
2024-04-01T10:54:30.977Z,637.00
2024-04-01T10:55:30.986Z,628.00
2024-04-01T10:56:30.995Z,630.00
2024-04-01T10:57:31.008Z,626.00
2024-04-01T10:58:31.027Z,626.00
2024-04-01T10:59:31.098Z,619.00
2024-04-01T11:00:31.032Z,615.00
2024-04-01T11:01:30.983Z,620.00
2024-04-01T11:02:31.008Z,624.00
2024-04-01T11:03:31.013Z,629.00
2024-04-01T11:04:31.011Z,629.00
2024-04-01T11:05:31.002Z,636.00
2024-04-01T11:06:31.007Z,632.00
2024-04-01T11:07:31.011Z,626.00
2024-04-01T11:08:31.024Z,627.00
2024-04-01T11:09:31.027Z,628.00
2024-04-01T11:10:31.440Z,628.00
2024-04-01T11:11:37.539Z,627.00
2024-04-01T11:12:32.003Z,627.00
2024-04-01T11:13:31.035Z,627.00
2024-04-01T11:14:31.473Z,628.00
2024-04-01T11:15:31.026Z,631.00
2024-04-01T11:16:31.030Z,625.00
2024-04-01T11:17:31.052Z,623.00
2024-04-01T11:18:31.013Z,620.00
2024-04-01T11:19:31.066Z,616.00
2024-04-01T11:20:31.023Z,611.00
2024-04-01T11:21:31.049Z,611.00
2024-04-01T11:22:31.071Z,606.00
2024-04-01T11:23:31.044Z,608.00
2024-04-01T11:24:31.053Z,603.00
2024-04-01T11:25:31.036Z,605.00
2024-04-01T11:26:31.056Z,603.00
2024-04-01T11:27:31.058Z,605.00
2024-04-01T11:28:31.048Z,603.00
2024-04-01T11:29:33.320Z,607.00
2024-04-01T11:30:31.054Z,600.00
2024-04-01T11:31:31.066Z,607.00
2024-04-01T11:32:31.079Z,604.00
2024-04-01T11:33:31.097Z,607.00
2024-04-01T11:34:31.118Z,608.00
2024-04-01T11:35:32.044Z,614.00
2024-04-01T11:36:31.213Z,613.00
2024-04-01T11:37:31.242Z,619.00
2024-04-01T11:38:31.302Z,623.00
2024-04-01T11:39:31.467Z,632.00
2024-04-01T11:40:31.384Z,636.00
2024-04-01T11:41:31.461Z,640.00
2024-04-01T11:42:31.480Z,627.00
2024-04-01T11:43:31.537Z,626.00
2024-04-01T11:44:43.092Z,624.00
2024-04-01T11:45:32.617Z,624.00
2024-04-01T11:46:31.619Z,625.00
2024-04-01T11:47:31.635Z,624.00
2024-04-01T11:48:31.613Z,629.00
2024-04-01T11:49:31.620Z,631.00
2024-04-01T11:50:31.608Z,633.00
2024-04-01T11:51:31.642Z,637.00
2024-04-01T11:52:31.621Z,635.00
2024-04-01T11:53:31.634Z,634.00
2024-04-01T11:54:31.653Z,628.00
2024-04-01T11:55:31.731Z,625.00
2024-04-01T11:56:31.783Z,624.00
2024-04-01T11:57:31.846Z,626.00
2024-04-01T11:58:31.910Z,627.00
2024-04-01T11:59:32.087Z,628.00
2024-04-01T12:00:32.085Z,630.00
2024-04-01T12:01:32.093Z,630.00
2024-04-01T12:02:32.153Z,633.00
2024-04-01T12:03:32.220Z,630.00
2024-04-01T12:04:32.463Z,633.00
2024-04-01T12:05:32.367Z,640.00
2024-04-01T12:06:32.456Z,649.00
2024-04-01T12:07:32.502Z,647.00
2024-04-01T12:08:34.987Z,654.00
2024-04-01T12:09:32.568Z,659.00
2024-04-01T12:10:32.584Z,657.00
2024-04-01T12:11:32.582Z,663.00
2024-04-01T12:12:32.560Z,666.00
2024-04-01T12:13:32.577Z,670.00
2024-04-01T12:14:32.570Z,682.00
2024-04-01T12:15:32.575Z,678.00
2024-04-01T12:16:32.585Z,683.00
2024-04-01T12:17:32.590Z,696.00
2024-04-01T12:18:32.615Z,683.00
2024-04-01T12:19:32.609Z,671.00
2024-04-01T12:20:35.399Z,665.00
2024-04-01T12:21:32.644Z,664.00
2024-04-01T12:22:32.614Z,666.00
2024-04-01T12:23:32.589Z,657.00
2024-04-01T12:24:32.606Z,654.00
2024-04-01T12:25:32.590Z,653.00